sensor_id;sensor_type;location;lat;lon;timestamp;pressure;altitude;pressure_sealevel;temperature
79228;BMP280;68658;46.174;11.254;2023-04-21T00:01:10;92440.16;;;7.37
79228;BMP280;68658;46.174;11.254;2023-04-21T00:03:37;92434.81;;;7.26
79228;BMP280;68658;46.174;11.254;2023-04-21T00:06:04;92432.84;;;7.15
79228;BMP280;68658;46.174;11.254;2023-04-21T00:08:36;92434.50;;;7.13
79228;BMP280;68658;46.174;11.254;2023-04-21T00:11:05;92438.28;;;7.12
79228;BMP280;68658;46.174;11.254;2023-04-21T00:13:32;92435.50;;;7.21
79228;BMP280;68658;46.174;11.254;2023-04-21T00:15:58;92427.16;;;7.22
79228;BMP280;68658;46.174;11.254;2023-04-21T00:18:24;92421.91;;;7.22
79228;BMP280;68658;46.174;11.254;2023-04-21T00:20:49;92418.75;;;7.13
79228;BMP280;68658;46.174;11.254;2023-04-21T00:23:15;92418.47;;;7.11
79228;BMP280;68658;46.174;11.254;2023-04-21T00:25:41;92422.53;;;7.12
79228;BMP280;68658;46.174;11.254;2023-04-21T00:28:06;92416.13;;;7.18
79228;BMP280;68658;46.174;11.254;2023-04-21T00:30:32;92415.63;;;7.14
79228;BMP280;68658;46.174;11.254;2023-04-21T00:32:57;92408.25;;;7.13
79228;BMP280;68658;46.174;11.254;2023-04-21T00:35:23;92423.34;;;7.23
79228;BMP280;68658;46.174;11.254;2023-04-21T00:37:48;92415.03;;;7.30
79228;BMP280;68658;46.174;11.254;2023-04-21T00:40:15;92412.88;;;7.29
79228;BMP280;68658;46.174;11.254;2023-04-21T00:42:40;92408.09;;;7.27
79228;BMP280;68658;46.174;11.254;2023-04-21T00:45:06;92407.88;;;7.31
79228;BMP280;68658;46.174;11.254;2023-04-21T00:47:34;92409.31;;;7.32
79228;BMP280;68658;46.174;11.254;2023-04-21T00:50:01;92405.50;;;7.33
79228;BMP280;68658;46.174;11.254;2023-04-21T00:52:27;92403.34;;;7.31
79228;BMP280;68658;46.174;11.254;2023-04-21T00:54:53;92407.59;;;7.23
79228;BMP280;68658;46.174;11.254;2023-04-21T00:57:19;92412.88;;;7.29
79228;BMP280;68658;46.174;11.254;2023-04-21T00:59:45;92405.72;;;7.29
79228;BMP280;68658;46.174;11.254;2023-04-21T01:02:11;92409.75;;;7.25
79228;BMP280;68658;46.174;11.254;2023-04-21T01:04:36;92415.00;;;7.25
79228;BMP280;68658;46.174;11.254;2023-04-21T01:07:04;92408.59;;;7.31
79228;BMP280;68658;46.174;11.254;2023-04-21T01:09:30;92401.19;;;7.30
79228;BMP280;68658;46.174;11.254;2023-04-21T01:12:10;92407.88;;;7.31
79228;BMP280;68658;46.174;11.254;2023-04-21T01:14:37;92403.06;;;7.24
79228;BMP280;68658;46.174;11.254;2023-04-21T01:17:03;92408.47;;;7.15
79228;BMP280;68658;46.174;11.254;2023-04-21T01:19:38;92403.69;;;7.13
79228;BMP280;68658;46.174;11.254;2023-04-21T01:22:08;92402.03;;;7.16
79228;BMP280;68658;46.174;11.254;2023-04-21T01:24:42;92412.81;;;7.18
79228;BMP280;68658;46.174;11.254;2023-04-21T01:27:09;92403.53;;;7.22
79228;BMP280;68658;46.174;11.254;2023-04-21T01:29:36;92404.50;;;7.25
79228;BMP280;68658;46.174;11.254;2023-04-21T01:32:10;92402.81;;;7.22
79228;BMP280;68658;46.174;11.254;2023-04-21T01:34:36;92405.84;;;7.15
79228;BMP280;68658;46.174;11.254;2023-04-21T01:37:02;92408.78;;;7.22
79228;BMP280;68658;46.174;11.254;2023-04-21T01:39:28;92416.69;;;7.28
79228;BMP280;68658;46.174;11.254;2023-04-21T01:41:54;92410.25;;;7.29
79228;BMP280;68658;46.174;11.254;2023-04-21T01:44:23;92408.34;;;7.29
79228;BMP280;68658;46.174;11.254;2023-04-21T01:46:50;92414.53;;;7.26
79228;BMP280;68658;46.174;11.254;2023-04-21T01:49:16;92405.44;;;7.22
79228;BMP280;68658;46.174;11.254;2023-04-21T01:51:41;92402.34;;;7.23
79228;BMP280;68658;46.174;11.254;2023-04-21T01:54:07;92408.81;;;7.28
79228;BMP280;68658;46.174;11.254;2023-04-21T01:56:33;92407.13;;;7.25
79228;BMP280;68658;46.174;11.254;2023-04-21T01:58:59;92409.47;;;7.23
79228;BMP280;68658;46.174;11.254;2023-04-21T02:01:24;92402.09;;;7.21
79228;BMP280;68658;46.174;11.254;2023-04-21T02:03:50;92405.22;;;7.25
79228;BMP280;68658;46.174;11.254;2023-04-21T02:06:15;92411.84;;;7.15
79228;BMP280;68658;46.174;11.254;2023-04-21T02:08:42;92403.41;;;7.06
79228;BMP280;68658;46.174;11.254;2023-04-21T02:11:07;92386.97;;;7.11
79228;BMP280;68658;46.174;11.254;2023-04-21T02:13:33;92401.13;;;7.19
79228;BMP280;68658;46.174;11.254;2023-04-21T02:15:58;92410.19;;;7.18
79228;BMP280;68658;46.174;11.254;2023-04-21T02:18:24;92405.84;;;7.15
79228;BMP280;68658;46.174;11.254;2023-04-21T02:20:50;92399.78;;;6.98
79228;BMP280;68658;46.174;11.254;2023-04-21T02:23:16;92404.25;;;6.92
79228;BMP280;68658;46.174;11.254;2023-04-21T02:25:41;92402.19;;;7.01
79228;BMP280;68658;46.174;11.254;2023-04-21T02:28:07;92406.28;;;7.08
79228;BMP280;68658;46.174;11.254;2023-04-21T02:30:32;92405.63;;;7.13
79228;BMP280;68658;46.174;11.254;2023-04-21T02:32:59;92403.66;;;7.08
79228;BMP280;68658;46.174;11.254;2023-04-21T02:35:25;92398.28;;;6.91
79228;BMP280;68658;46.174;11.254;2023-04-21T02:37:50;92406.16;;;6.91
79228;BMP280;68658;46.174;11.254;2023-04-21T02:40:16;92402.09;;;6.90
79228;BMP280;68658;46.174;11.254;2023-04-21T02:42:41;92408.56;;;6.95
79228;BMP280;68658;46.174;11.254;2023-04-21T02:45:07;92410.50;;;7.00
79228;BMP280;68658;46.174;11.254;2023-04-21T02:47:33;92406.22;;;6.97
79228;BMP280;68658;46.174;11.254;2023-04-21T02:49:59;92402.16;;;6.96
79228;BMP280;68658;46.174;11.254;2023-04-21T02:52:24;92396.91;;;6.96
79228;BMP280;68658;46.174;11.254;2023-04-21T02:54:54;92392.63;;;6.98
79228;BMP280;68658;46.174;11.254;2023-04-21T02:57:19;92398.09;;;6.95
79228;BMP280;68658;46.174;11.254;2023-04-21T02:59:45;92391.66;;;6.96
79228;BMP280;68658;46.174;11.254;2023-04-21T03:02:11;92398.09;;;6.95
79228;BMP280;68658;46.174;11.254;2023-04-21T03:04:36;92390.22;;;6.95
79228;BMP280;68658;46.174;11.254;2023-04-21T03:07:02;92396.22;;;7.01
79228;BMP280;68658;46.174;11.254;2023-04-21T03:09:27;92395.28;;;7.04
79228;BMP280;68658;46.174;11.254;2023-04-21T03:11:53;92402.41;;;6.98
79228;BMP280;68658;46.174;11.254;2023-04-21T03:14:18;92397.88;;;6.98
79228;BMP280;68658;46.174;11.254;2023-04-21T03:16:44;92391.13;;;6.92
79228;BMP280;68658;46.174;11.254;2023-04-21T03:19:10;92392.94;;;6.75
79228;BMP280;68658;46.174;11.254;2023-04-21T03:21:36;92391.75;;;6.76
79228;BMP280;68658;46.174;11.254;2023-04-21T03:24:04;92389.56;;;6.75
79228;BMP280;68658;46.174;11.254;2023-04-21T03:26:30;92393.38;;;6.74
79228;BMP280;68658;46.174;11.254;2023-04-21T03:28:58;92400.38;;;6.82
79228;BMP280;68658;46.174;11.254;2023-04-21T03:31:24;92401.34;;;6.85
79228;BMP280;68658;46.174;11.254;2023-04-21T03:33:49;92388.94;;;6.85
79228;BMP280;68658;46.174;11.254;2023-04-21T03:36:15;92398.78;;;6.90
79228;BMP280;68658;46.174;11.254;2023-04-21T03:38:40;92394.19;;;6.85
79228;BMP280;68658;46.174;11.254;2023-04-21T03:41:06;92405.09;;;6.78
79228;BMP280;68658;46.174;11.254;2023-04-21T03:43:31;92399.50;;;6.65
79228;BMP280;68658;46.174;11.254;2023-04-21T03:45:57;92404.81;;;6.71
79228;BMP280;68658;46.174;11.254;2023-04-21T03:48:23;92405.28;;;6.69
79228;BMP280;68658;46.174;11.254;2023-04-21T03:50:48;92407.72;;;6.78
79228;BMP280;68658;46.174;11.254;2023-04-21T03:53:14;92410.13;;;6.82
79228;BMP280;68658;46.174;11.254;2023-04-21T03:55:40;92404.66;;;6.85
79228;BMP280;68658;46.174;11.254;2023-04-21T03:58:05;92409.22;;;6.85
79228;BMP280;68658;46.174;11.254;2023-04-21T04:00:31;92403.16;;;6.73
79228;BMP280;68658;46.174;11.254;2023-04-21T04:02:57;92407.50;;;6.76
79228;BMP280;68658;46.174;11.254;2023-04-21T04:05:23;92409.84;;;6.74
79228;BMP280;68658;46.174;11.254;2023-04-21T04:07:49;92401.97;;;6.74
79228;BMP280;68658;46.174;11.254;2023-04-21T04:10:15;92402.94;;;6.77
79228;BMP280;68658;46.174;11.254;2023-04-21T04:12:41;92392.44;;;6.77
79228;BMP280;68658;46.174;11.254;2023-04-21T04:15:07;92397.16;;;6.67
79228;BMP280;68658;46.174;11.254;2023-04-21T04:17:32;92400.28;;;6.71
79228;BMP280;68658;46.174;11.254;2023-04-21T04:19:58;92395.03;;;6.71
79228;BMP280;68658;46.174;11.254;2023-04-21T04:22:24;92407.38;;;6.65
79228;BMP280;68658;46.174;11.254;2023-04-21T04:24:49;92408.28;;;6.62
79228;BMP280;68658;46.174;11.254;2023-04-21T04:27:15;92411.94;;;6.70
79228;BMP280;68658;46.174;11.254;2023-04-21T04:29:42;92407.22;;;6.74
79228;BMP280;68658;46.174;11.254;2023-04-21T04:32:08;92396.88;;;6.65
79228;BMP280;68658;46.174;11.254;2023-04-21T04:34:35;92396.47;;;6.72
79228;BMP280;68658;46.174;11.254;2023-04-21T04:37:02;92394.38;;;6.76
79228;BMP280;68658;46.174;11.254;2023-04-21T04:39:28;92397.50;;;6.80
79228;BMP280;68658;46.174;11.254;2023-04-21T04:41:55;92388.94;;;6.85
79228;BMP280;68658;46.174;11.254;2023-04-21T04:44:20;92395.38;;;6.84
79228;BMP280;68658;46.174;11.254;2023-04-21T04:46:47;92399.63;;;6.76
79228;BMP280;68658;46.174;11.254;2023-04-21T04:49:13;92398.94;;;6.81
79228;BMP280;68658;46.174;11.254;2023-04-21T04:51:39;92400.31;;;6.77
79228;BMP280;68658;46.174;11.254;2023-04-21T04:54:05;92402.69;;;6.75
79228;BMP280;68658;46.174;11.254;2023-04-21T04:56:30;92401.44;;;6.70
79228;BMP280;68658;46.174;11.254;2023-04-21T04:58:56;92412.13;;;6.61
79228;BMP280;68658;46.174;11.254;2023-04-21T05:01:21;92419.00;;;6.59
79228;BMP280;68658;46.174;11.254;2023-04-21T05:03:52;92417.88;;;6.65
79228;BMP280;68658;46.174;11.254;2023-04-21T05:06:17;92424.63;;;6.72
79228;BMP280;68658;46.174;11.254;2023-04-21T05:08:42;92437.00;;;6.71
79228;BMP280;68658;46.174;11.254;2023-04-21T05:11:08;92443.78;;;6.83
79228;BMP280;68658;46.174;11.254;2023-04-21T05:13:33;92440.97;;;6.92
79228;BMP280;68658;46.174;11.254;2023-04-21T05:15:59;92447.25;;;7.00
79228;BMP280;68658;46.174;11.254;2023-04-21T05:18:28;92450.66;;;7.06
79228;BMP280;68658;46.174;11.254;2023-04-21T05:20:53;92445.16;;;7.04
79228;BMP280;68658;46.174;11.254;2023-04-21T05:23:19;92440.88;;;7.06
79228;BMP280;68658;46.174;11.254;2023-04-21T05:25:45;92447.25;;;7.00
79228;BMP280;68658;46.174;11.254;2023-04-21T05:28:10;92450.47;;;7.15
79228;BMP280;68658;46.174;11.254;2023-04-21T05:30:36;92455.34;;;7.27
79228;BMP280;68658;46.174;11.254;2023-04-21T05:33:02;92453.34;;;7.17
79228;BMP280;68658;46.174;11.254;2023-04-21T05:35:30;92458.34;;;7.15
79228;BMP280;68658;46.174;11.254;2023-04-21T05:37:56;92456.72;;;7.17
79228;BMP280;68658;46.174;11.254;2023-04-21T05:40:21;92457.75;;;7.25
79228;BMP280;68658;46.174;11.254;2023-04-21T05:42:47;92457.53;;;7.34
79228;BMP280;68658;46.174;11.254;2023-04-21T05:45:12;92456.56;;;7.32
79228;BMP280;68658;46.174;11.254;2023-04-21T05:47:38;92455.22;;;7.42
79228;BMP280;68658;46.174;11.254;2023-04-21T05:50:05;92460.97;;;7.46
79228;BMP280;68658;46.174;11.254;2023-04-21T05:52:30;92454.00;;;7.37
79228;BMP280;68658;46.174;11.254;2023-04-21T05:54:57;92461.81;;;7.32
79228;BMP280;68658;46.174;11.254;2023-04-21T05:57:26;92460.25;;;7.45
79228;BMP280;68658;46.174;11.254;2023-04-21T05:59:51;92460.97;;;7.46
79228;BMP280;68658;46.174;11.254;2023-04-21T06:02:17;92458.09;;;7.44
79228;BMP280;68658;46.174;11.254;2023-04-21T06:04:43;92459.06;;;7.46
79228;BMP280;68658;46.174;11.254;2023-04-21T06:07:09;92457.66;;;7.51
79228;BMP280;68658;46.174;11.254;2023-04-21T06:09:38;92459.16;;;7.63
79228;BMP280;68658;46.174;11.254;2023-04-21T06:12:04;92463.41;;;7.55
79228;BMP280;68658;46.174;11.254;2023-04-21T06:14:30;92458.94;;;7.66
79228;BMP280;68658;46.174;11.254;2023-04-21T06:16:56;92462.06;;;7.65
79228;BMP280;68658;46.174;11.254;2023-04-21T06:19:22;92468.97;;;7.62
79228;BMP280;68658;46.174;11.254;2023-04-21T06:21:47;92474.66;;;7.61
79228;BMP280;68658;46.174;11.254;2023-04-21T06:24:12;92473.31;;;7.70
79228;BMP280;68658;46.174;11.254;2023-04-21T06:26:38;92465.50;;;7.81
79228;BMP280;68658;46.174;11.254;2023-04-21T06:29:03;92464.78;;;7.86
79228;BMP280;68658;46.174;11.254;2023-04-21T06:31:29;92461.72;;;7.93
79228;BMP280;68658;46.174;11.254;2023-04-21T06:33:55;92457.41;;;7.90
79228;BMP280;68658;46.174;11.254;2023-04-21T06:36:20;92471.78;;;8.00
79228;BMP280;68658;46.174;11.254;2023-04-21T06:38:48;92468.75;;;8.13
79228;BMP280;68658;46.174;11.254;2023-04-21T06:41:14;92472.66;;;8.23
79228;BMP280;68658;46.174;11.254;2023-04-21T06:43:39;92459.97;;;8.27
79228;BMP280;68658;46.174;11.254;2023-04-21T06:46:05;92460.94;;;8.29
79228;BMP280;68658;46.174;11.254;2023-04-21T06:48:31;92468.31;;;8.20
79228;BMP280;68658;46.174;11.254;2023-04-21T06:50:57;92471.09;;;8.00
79228;BMP280;68658;46.174;11.254;2023-04-21T06:53:22;92476.78;;;7.93
79228;BMP280;68658;46.174;11.254;2023-04-21T06:55:48;92482.59;;;7.66
79228;BMP280;68658;46.174;11.254;2023-04-21T06:58:13;92475.66;;;7.63
79228;BMP280;68658;46.174;11.254;2023-04-21T07:00:40;92487.44;;;7.78
79228;BMP280;68658;46.174;11.254;2023-04-21T07:03:05;92471.28;;;7.91
79228;BMP280;68658;46.174;11.254;2023-04-21T07:05:31;92485.69;;;8.06
79228;BMP280;68658;46.174;11.254;2023-04-21T07:07:56;92477.19;;;8.22
79228;BMP280;68658;46.174;11.254;2023-04-21T07:10:27;92480.09;;;8.35
79228;BMP280;68658;46.174;11.254;2023-04-21T07:12:54;92473.19;;;8.43
79228;BMP280;68658;46.174;11.254;2023-04-21T07:15:20;92475.59;;;8.46
79228;BMP280;68658;46.174;11.254;2023-04-21T07:17:45;92476.09;;;8.50
79228;BMP280;68658;46.174;11.254;2023-04-21T07:20:14;92478.25;;;8.57
79228;BMP280;68658;46.174;11.254;2023-04-21T07:22:39;92476.03;;;8.40
79228;BMP280;68658;46.174;11.254;2023-04-21T07:25:08;92479.38;;;8.35
79228;BMP280;68658;46.174;11.254;2023-04-21T07:27:34;92473.66;;;8.42
79228;BMP280;68658;46.174;11.254;2023-04-21T07:30:06;92477.47;;;8.41
79228;BMP280;68658;46.174;11.254;2023-04-21T07:32:31;92475.34;;;8.50
79228;BMP280;68658;46.174;11.254;2023-04-21T07:34:57;92475.41;;;8.72
79228;BMP280;68658;46.174;11.254;2023-04-21T07:37:23;92479.78;;;8.86
79228;BMP280;68658;46.174;11.254;2023-04-21T07:39:49;92488.63;;;8.88
79228;BMP280;68658;46.174;11.254;2023-04-21T07:42:17;92480.28;;;9.01
79228;BMP280;68658;46.174;11.254;2023-04-21T07:44:42;92487.22;;;9.09
79228;BMP280;68658;46.174;11.254;2023-04-21T07:47:08;92484.59;;;9.47
79228;BMP280;68658;46.174;11.254;2023-04-21T07:49:33;92487.94;;;9.64
79228;BMP280;68658;46.174;11.254;2023-04-21T07:51:59;92487.94;;;9.75
79228;BMP280;68658;46.174;11.254;2023-04-21T07:54:24;92493.91;;;9.76
79228;BMP280;68658;46.174;11.254;2023-04-21T07:56:50;92496.78;;;9.83
79228;BMP280;68658;46.174;11.254;2023-04-21T07:59:16;92500.38;;;10.02
79228;BMP280;68658;46.174;11.254;2023-04-21T08:01:41;92502.06;;;9.83
79228;BMP280;68658;46.174;11.254;2023-04-21T08:04:06;92499.13;;;10.25
79228;BMP280;68658;46.174;11.254;2023-04-21T08:06:33;92501.25;;;10.32
79228;BMP280;68658;46.174;11.254;2023-04-21T08:08:58;92499.81;;;10.31
79228;BMP280;68658;46.174;11.254;2023-04-21T08:11:24;92504.66;;;10.16
79228;BMP280;68658;46.174;11.254;2023-04-21T08:13:50;92502.75;;;10.05
79228;BMP280;68658;46.174;11.254;2023-04-21T08:16:18;92500.31;;;10.24
79228;BMP280;68658;46.174;11.254;2023-04-21T08:18:44;92495.19;;;10.48
79228;BMP280;68658;46.174;11.254;2023-04-21T08:21:12;92501.22;;;10.43
79228;BMP280;68658;46.174;11.254;2023-04-21T08:23:39;92495.44;;;10.50
79228;BMP280;68658;46.174;11.254;2023-04-21T08:26:04;92494.66;;;10.66
79228;BMP280;68658;46.174;11.254;2023-04-21T08:28:30;92499.28;;;10.43
79228;BMP280;68658;46.174;11.254;2023-04-21T08:30:55;92500.47;;;10.48
79228;BMP280;68658;46.174;11.254;2023-04-21T08:33:21;92501.44;;;10.50
79228;BMP280;68658;46.174;11.254;2023-04-21T08:35:47;92500.03;;;10.38
79228;BMP280;68658;46.174;11.254;2023-04-21T08:38:12;92505.22;;;10.66
79228;BMP280;68658;46.174;11.254;2023-04-21T08:40:38;92510.34;;;10.42
79228;BMP280;68658;46.174;11.254;2023-04-21T08:43:05;92509.78;;;10.60
79228;BMP280;68658;46.174;11.254;2023-04-21T08:45:31;92510.25;;;10.69
79228;BMP280;68658;46.174;11.254;2023-04-21T08:47:59;92519.50;;;10.92
79228;BMP280;68658;46.174;11.254;2023-04-21T08:50:29;92510.78;;;11.02
79228;BMP280;68658;46.174;11.254;2023-04-21T08:52:56;92506.19;;;11.08
79228;BMP280;68658;46.174;11.254;2023-04-21T08:55:28;92504.72;;;11.13
79228;BMP280;68658;46.174;11.254;2023-04-21T08:57:54;92505.06;;;10.93
79228;BMP280;68658;46.174;11.254;2023-04-21T09:00:20;92512.63;;;10.73
79228;BMP280;68658;46.174;11.254;2023-04-21T09:05:23;92512.50;;;10.94
79228;BMP280;68658;46.174;11.254;2023-04-21T09:07:50;92518.34;;;11.22
79228;BMP280;68658;46.174;11.254;2023-04-21T09:10:21;92518.19;;;11.09
79228;BMP280;68658;46.174;11.254;2023-04-21T09:12:50;92518.22;;;11.04
79228;BMP280;68658;46.174;11.254;2023-04-21T09:15:19;92508.97;;;11.21
79228;BMP280;68658;46.174;11.254;2023-04-21T09:17:45;92513.38;;;11.08
79228;BMP280;68658;46.174;11.254;2023-04-21T09:20:20;92509.91;;;11.29
79228;BMP280;68658;46.174;11.254;2023-04-21T09:22:49;92516.03;;;11.48
79228;BMP280;68658;46.174;11.254;2023-04-21T09:25:21;92507.72;;;11.68
79228;BMP280;68658;46.174;11.254;2023-04-21T09:27:52;92499.28;;;11.99
79228;BMP280;68658;46.174;11.254;2023-04-21T09:30:18;92504.13;;;12.19
79228;BMP280;68658;46.174;11.254;2023-04-21T09:32:44;92511.66;;;12.15
79228;BMP280;68658;46.174;11.254;2023-04-21T09:35:10;92508.66;;;12.24
79228;BMP280;68658;46.174;11.254;2023-04-21T09:37:36;92501.47;;;11.95
79228;BMP280;68658;46.174;11.254;2023-04-21T09:40:02;92506.88;;;11.84
79228;BMP280;68658;46.174;11.254;2023-04-21T09:42:29;92500.44;;;11.45
79228;BMP280;68658;46.174;11.254;2023-04-21T09:44:55;92509.13;;;11.34
79228;BMP280;68658;46.174;11.254;2023-04-21T09:47:21;92500.75;;;11.30
79228;BMP280;68658;46.174;11.254;2023-04-21T09:49:50;92498.94;;;11.49
79228;BMP280;68658;46.174;11.254;2023-04-21T09:52:18;92498.72;;;11.47
79228;BMP280;68658;46.174;11.254;2023-04-21T09:54:49;92505.31;;;11.30
79228;BMP280;68658;46.174;11.254;2023-04-21T09:57:20;92500.09;;;11.24
79228;BMP280;68658;46.174;11.254;2023-04-21T09:59:54;92501.69;;;11.38
79228;BMP280;68658;46.174;11.254;2023-04-21T10:02:24;92499.84;;;11.22
79228;BMP280;68658;46.174;11.254;2023-04-21T10:04:51;92500.59;;;11.87
79228;BMP280;68658;46.174;11.254;2023-04-21T10:07:16;92502.91;;;12.67
79228;BMP280;68658;46.174;11.254;2023-04-21T10:09:48;92504.75;;;12.72
79228;BMP280;68658;46.174;11.254;2023-04-21T10:12:16;92500.25;;;12.86
79228;BMP280;68658;46.174;11.254;2023-04-21T10:14:42;92487.34;;;13.01
79228;BMP280;68658;46.174;11.254;2023-04-21T10:17:09;92484.22;;;13.15
79228;BMP280;68658;46.174;11.254;2023-04-21T10:19:37;92484.72;;;13.32
79228;BMP280;68658;46.174;11.254;2023-04-21T10:22:06;92481.78;;;12.80
79228;BMP280;68658;46.174;11.254;2023-04-21T10:24:38;92480.34;;;12.79
79228;BMP280;68658;46.174;11.254;2023-04-21T10:27:04;92474.13;;;13.32
79228;BMP280;68658;46.174;11.254;2023-04-21T10:29:32;92470.66;;;13.37
79228;BMP280;68658;46.174;11.254;2023-04-21T10:32:02;92470.50;;;13.48
79228;BMP280;68658;46.174;11.254;2023-04-21T10:34:33;92456.09;;;13.12
79228;BMP280;68658;46.174;11.254;2023-04-21T10:44:53;92461.13;;;12.36
79228;BMP280;68658;46.174;11.254;2023-04-21T10:50:10;92457.63;;;13.39
79228;BMP280;68658;46.174;11.254;2023-04-21T10:52:35;92458.81;;;13.69
79228;BMP280;68658;46.174;11.254;2023-04-21T10:55:03;92441.34;;;13.16
79228;BMP280;68658;46.174;11.254;2023-04-21T10:57:31;92445.91;;;12.79
79228;BMP280;68658;46.174;11.254;2023-04-21T10:59:57;92444.19;;;12.63
79228;BMP280;68658;46.174;11.254;2023-04-21T11:02:23;92439.97;;;12.55
79228;BMP280;68658;46.174;11.254;2023-04-21T11:04:50;92444.22;;;13.00
79228;BMP280;68658;46.174;11.254;2023-04-21T11:07:21;92444.16;;;13.37
79228;BMP280;68658;46.174;11.254;2023-04-21T11:09:55;92438.03;;;13.11
79228;BMP280;68658;46.174;11.254;2023-04-21T11:12:21;92436.97;;;13.19
79228;BMP280;68658;46.174;11.254;2023-04-21T11:14:47;92431.09;;;13.26
79228;BMP280;68658;46.174;11.254;2023-04-21T11:17:14;92433.78;;;13.39
79228;BMP280;68658;46.174;11.254;2023-04-21T11:19:41;92428.50;;;13.52
79228;BMP280;68658;46.174;11.254;2023-04-21T11:22:06;92425.53;;;13.87
79228;BMP280;68658;46.174;11.254;2023-04-21T11:24:35;92421.03;;;14.07
79228;BMP280;68658;46.174;11.254;2023-04-21T11:27:01;92421.44;;;13.98
79228;BMP280;68658;46.174;11.254;2023-04-21T11:29:26;92414.53;;;14.21
79228;BMP280;68658;46.174;11.254;2023-04-21T11:31:55;92426.91;;;13.75
79228;BMP280;68658;46.174;11.254;2023-04-21T11:34:25;92417.41;;;14.23
79228;BMP280;68658;46.174;11.254;2023-04-21T11:36:51;92424.66;;;14.36
79228;BMP280;68658;46.174;11.254;2023-04-21T11:39:17;92413.81;;;14.93
79228;BMP280;68658;46.174;11.254;2023-04-21T11:41:47;92412.34;;;13.81
79228;BMP280;68658;46.174;11.254;2023-04-21T11:44:28;92420.50;;;13.39
79228;BMP280;68658;46.174;11.254;2023-04-21T11:46:54;92414.16;;;13.73
79228;BMP280;68658;46.174;11.254;2023-04-21T11:49:23;92403.25;;;13.64
79228;BMP280;68658;46.174;11.254;2023-04-21T11:51:49;92403.06;;;13.88
79228;BMP280;68658;46.174;11.254;2023-04-21T11:54:17;92409.88;;;13.26
79228;BMP280;68658;46.174;11.254;2023-04-21T11:56:46;92413.78;;;13.38
79228;BMP280;68658;46.174;11.254;2023-04-21T11:59:16;92414.56;;;13.77
79228;BMP280;68658;46.174;11.254;2023-04-21T12:01:47;92414.94;;;14.12
79228;BMP280;68658;46.174;11.254;2023-04-21T12:04:14;92419.66;;;14.32
79228;BMP280;68658;46.174;11.254;2023-04-21T12:06:43;92414.53;;;14.21
79228;BMP280;68658;46.174;11.254;2023-04-21T12:09:18;92417.38;;;14.10
79228;BMP280;68658;46.174;11.254;2023-04-21T12:11:49;92425.75;;;14.14
79228;BMP280;68658;46.174;11.254;2023-04-21T12:14:15;92425.44;;;14.05
79228;BMP280;68658;46.174;11.254;2023-04-21T12:16:41;92432.88;;;13.93
79228;BMP280;68658;46.174;11.254;2023-04-21T12:19:07;92425.53;;;13.87
79228;BMP280;68658;46.174;11.254;2023-04-21T12:21:35;92425.22;;;13.46
79228;BMP280;68658;46.174;11.254;2023-04-21T12:24:01;92422.03;;;13.91
79228;BMP280;68658;46.174;11.254;2023-04-21T12:26:28;92422.19;;;14.51
79228;BMP280;68658;46.174;11.254;2023-04-21T12:28:54;92422.06;;;14.43
79228;BMP280;68658;46.174;11.254;2023-04-21T12:31:20;92427.13;;;15.13
79228;BMP280;68658;46.174;11.254;2023-04-21T12:33:48;92419.91;;;15.01
79228;BMP280;68658;46.174;11.254;2023-04-21T12:36:13;92424.56;;;15.21
79228;BMP280;68658;46.174;11.254;2023-04-21T12:38:42;92426.94;;;15.65
79228;BMP280;68658;46.174;11.254;2023-04-21T12:41:08;92418.63;;;14.81
79228;BMP280;68658;46.174;11.254;2023-04-21T12:43:34;92424.41;;;14.08
79228;BMP280;68658;46.174;11.254;2023-04-21T12:45:59;92418.41;;;14.33
79228;BMP280;68658;46.174;11.254;2023-04-21T12:48:25;92421.78;;;14.21
79228;BMP280;68658;46.174;11.254;2023-04-21T12:50:51;92412.59;;;14.22
79228;BMP280;68658;46.174;11.254;2023-04-21T12:53:16;92419.25;;;14.15
79228;BMP280;68658;46.174;11.254;2023-04-21T12:55:42;92408.56;;;13.89
79228;BMP280;68658;46.174;11.254;2023-04-21T12:58:07;92409.81;;;14.01
79228;BMP280;68658;46.174;11.254;2023-04-21T13:00:33;92409.69;;;14.07
79228;BMP280;68658;46.174;11.254;2023-04-21T13:03:00;92400.19;;;14.63
79228;BMP280;68658;46.174;11.254;2023-04-21T13:05:25;92402.09;;;14.75
79228;BMP280;68658;46.174;11.254;2023-04-21T13:07:51;92400.31;;;14.58
79228;BMP280;68658;46.174;11.254;2023-04-21T13:10:17;92401.47;;;14.23
79228;BMP280;68658;46.174;11.254;2023-04-21T13:12:43;92390.75;;;15.08
79228;BMP280;68658;46.174;11.254;2023-04-21T13:15:08;92381.31;;;14.54
79228;BMP280;68658;46.174;11.254;2023-04-21T13:17:34;92386.34;;;14.18
79228;BMP280;68658;46.174;11.254;2023-04-21T13:20:00;92390.75;;;14.29
79228;BMP280;68658;46.174;11.254;2023-04-21T13:22:25;92383.91;;;14.20
79228;BMP280;68658;46.174;11.254;2023-04-21T13:24:51;92375.53;;;14.29
79228;BMP280;68658;46.174;11.254;2023-04-21T13:27:16;92378.38;;;14.05
79228;BMP280;68658;46.174;11.254;2023-04-21T13:29:42;92375.66;;;14.11
79228;BMP280;68658;46.174;11.254;2023-04-21T13:32:08;92360.00;;;14.20
79228;BMP280;68658;46.174;11.254;2023-04-21T13:34:34;92405.00;;;15.31
79228;BMP280;68658;46.174;11.254;2023-04-21T13:37:00;92361.00;;;18.24
79228;BMP280;68658;46.174;11.254;2023-04-21T13:39:26;92366.69;;;15.27
79228;BMP280;68658;46.174;11.254;2023-04-21T13:41:52;92359.47;;;14.81
79228;BMP280;68658;46.174;11.254;2023-04-21T13:44:21;92366.13;;;15.08
79228;BMP280;68658;46.174;11.254;2023-04-21T13:46:49;92370.97;;;15.30
79228;BMP280;68658;46.174;11.254;2023-04-21T13:49:17;92390.53;;;20.31
79228;BMP280;68658;46.174;11.254;2023-04-21T13:51:42;92383.06;;;22.67
79228;BMP280;68658;46.174;11.254;2023-04-21T13:54:07;92376.38;;;22.30
79228;BMP280;68658;46.174;11.254;2023-04-21T13:56:33;92380.28;;;23.61
79228;BMP280;68658;46.174;11.254;2023-04-21T13:58:59;92371.94;;;25.32
79228;BMP280;68658;46.174;11.254;2023-04-21T14:01:25;92384.34;;;23.32
79228;BMP280;68658;46.174;11.254;2023-04-21T14:03:50;92366.41;;;24.56
79228;BMP280;68658;46.174;11.254;2023-04-21T14:06:16;92334.81;;;21.95
79228;BMP280;68658;46.174;11.254;2023-04-21T14:08:42;92355.84;;;19.92
79228;BMP280;68658;46.174;11.254;2023-04-21T14:11:07;92333.56;;;18.77
79228;BMP280;68658;46.174;11.254;2023-04-21T14:13:33;92334.94;;;18.47